sensor_id;sensor_type;location;lat;lon;timestamp;pressure;altitude;pressure_sealevel;temperature;humidity
2339;BME280;1180;51.438;6.978;2023-03-26T00:00:43;99454.44;;;10.96;100.00
2339;BME280;1180;51.438;6.978;2023-03-26T00:03:11;99451.53;;;11.01;100.00
2339;BME280;1180;51.438;6.978;2023-03-26T00:05:39;99457.59;;;11.00;100.00
2339;BME280;1180;51.438;6.978;2023-03-26T00:08:06;99454.25;;;11.11;100.00
2339;BME280;1180;51.438;6.978;2023-03-26T00:10:36;99456.22;;;11.07;100.00
2339;BME280;1180;51.438;6.978;2023-03-26T00:13:03;99448.66;;;11.17;100.00
2339;BME280;1180;51.438;6.978;2023-03-26T00:15:29;99455.28;;;11.08;100.00
2339;BME280;1180;51.438;6.978;2023-03-26T00:17:54;99453.41;;;10.99;100.00
2339;BME280;1180;51.438;6.978;2023-03-26T00:20:20;99448.00;;;10.91;100.00
2339;BME280;1180;51.438;6.978;2023-03-26T00:22:46;99450.59;;;11.02;100.00
2339;BME280;1180;51.438;6.978;2023-03-26T00:25:12;99450.59;;;11.02;100.00
2339;BME280;1180;51.438;6.978;2023-03-26T00:27:37;99444.88;;;11.10;100.00
2339;BME280;1180;51.438;6.978;2023-03-26T00:30:04;99441.28;;;11.12;100.00
2339;BME280;1180;51.438;6.978;2023-03-26T00:32:30;99441.28;;;11.12;100.00
2339;BME280;1180;51.438;6.978;2023-03-26T00:34:58;99434.41;;;11.13;100.00
2339;BME280;1180;51.438;6.978;2023-03-26T00:37:25;99430.31;;;11.10;100.00
2339;BME280;1180;51.438;6.978;2023-03-26T00:39:55;99438.34;;;11.06;100.00
2339;BME280;1180;51.438;6.978;2023-03-26T00:42:27;99432.41;;;11.05;100.00
2339;BME280;1180;51.438;6.978;2023-03-26T00:44:52;99430.31;;;11.10;100.00
2339;BME280;1180;51.438;6.978;2023-03-26T00:47:26;99425.78;;;11.14;100.00
2339;BME280;1180;51.438;6.978;2023-03-26T00:49:51;99430.06;;;11.13;99.91
2339;BME280;1180;51.438;6.978;2023-03-26T00:52:18;99425.88;;;11.12;99.74
2339;BME280;1180;51.438;6.978;2023-03-26T00:54:44;99428.09;;;11.17;99.01
2339;BME280;1180;51.438;6.978;2023-03-26T00:57:11;99429.59;;;11.08;99.39
2339;BME280;1180;51.438;6.978;2023-03-26T00:59:38;99431.25;;;11.09;98.72
2339;BME280;1180;51.438;6.978;2023-03-26T01:02:03;99427.13;;;11.07;98.92
2339;BME280;1180;51.438;6.978;2023-03-26T01:04:32;99421.91;;;11.08;99.53
2339;BME280;1180;51.438;6.978;2023-03-26T01:07:01;99417.38;;;11.12;98.79
2339;BME280;1180;51.438;6.978;2023-03-26T01:09:32;99417.38;;;11.12;98.68
2339;BME280;1180;51.438;6.978;2023-03-26T01:12:00;99413.97;;;11.11;98.45
2339;BME280;1180;51.438;6.978;2023-03-26T01:14:27;99407.09;;;11.12;98.39
2339;BME280;1180;51.438;6.978;2023-03-26T01:17:00;99402.06;;;11.10;98.48
2339;BME280;1180;51.438;6.978;2023-03-26T01:22:19;99399.59;;;11.09;98.36
2339;BME280;1180;51.438;6.978;2023-03-26T01:24:44;99392.03;;;11.19;98.22
2339;BME280;1180;51.438;6.978;2023-03-26T01:35:57;99402.41;;;10.94;97.76
2339;BME280;1180;51.438;6.978;2023-03-26T01:41:16;99385.25;;;11.06;97.69
2339;BME280;1180;51.438;6.978;2023-03-26T01:46:14;99382.00;;;11.04;97.79
2339;BME280;1180;51.438;6.978;2023-03-26T01:48:44;99378.34;;;11.07;97.03
2339;BME280;1180;51.438;6.978;2023-03-26T01:51:11;99375.91;;;11.05;97.14
2339;BME280;1180;51.438;6.978;2023-03-26T01:53:41;99370.66;;;11.07;96.86
2339;BME280;1180;51.438;6.978;2023-03-26T01:59:05;99355.72;;;11.01;96.50
2339;BME280;1180;51.438;6.978;2023-03-26T02:01:51;99353.28;;;10.99;96.38
2339;BME280;1180;51.438;6.978;2023-03-26T02:07:24;99347.78;;;10.92;96.03
2339;BME280;1180;51.438;6.978;2023-03-26T02:10:02;99344.19;;;10.95;96.15
2339;BME280;1180;51.438;6.978;2023-03-26T02:12:31;99345.13;;;11.05;95.64
2339;BME280;1180;51.438;6.978;2023-03-26T02:15:00;99339.75;;;10.97;95.53
2339;BME280;1180;51.438;6.978;2023-03-26T02:17:26;99333.56;;;11.00;96.09
2339;BME280;1180;51.438;6.978;2023-03-26T02:19:55;99333.31;;;10.91;95.62
2339;BME280;1180;51.438;6.978;2023-03-26T02:22:20;99326.56;;;10.90;95.42
2339;BME280;1180;51.438;6.978;2023-03-26T02:24:46;99328.75;;;10.83;95.61
2339;BME280;1180;51.438;6.978;2023-03-26T02:27:12;99316.75;;;10.84;96.00
2339;BME280;1180;51.438;6.978;2023-03-26T02:29:39;99316.63;;;10.86;96.10
2339;BME280;1180;51.438;6.978;2023-03-26T02:32:06;99315.59;;;10.88;96.04
2339;BME280;1180;51.438;6.978;2023-03-26T02:34:32;99308.69;;;10.89;96.00
2339;BME280;1180;51.438;6.978;2023-03-26T02:36:58;99319.09;;;10.87;95.98
2339;BME280;1180;51.438;6.978;2023-03-26T02:39:23;99309.88;;;10.96;95.71
2339;BME280;1180;51.438;6.978;2023-03-26T02:41:50;99315.00;;;10.96;96.23
2339;BME280;1180;51.438;6.978;2023-03-26T02:44:15;99311.50;;;10.97;95.70
2339;BME280;1180;51.438;6.978;2023-03-26T02:46:40;99309.75;;;10.97;96.01
2339;BME280;1180;51.438;6.978;2023-03-26T02:49:06;99301.00;;;11.00;96.45
2339;BME280;1180;51.438;6.978;2023-03-26T02:51:32;99299.00;;;11.04;96.05
2339;BME280;1180;51.438;6.978;2023-03-26T02:53:59;99298.31;;;11.02;95.80
2339;BME280;1180;51.438;6.978;2023-03-26T02:56:25;99302.38;;;10.93;96.27
2339;BME280;1180;51.438;6.978;2023-03-26T02:58:50;99297.75;;;10.98;96.71
2339;BME280;1180;51.438;6.978;2023-03-26T03:01:16;99292.50;;;11.11;96.53
2339;BME280;1180;51.438;6.978;2023-03-26T03:03:42;99277.19;;;11.09;96.10
2339;BME280;1180;51.438;6.978;2023-03-26T03:06:08;99271.94;;;11.11;95.82
2339;BME280;1180;51.438;6.978;2023-03-26T03:08:33;99269.97;;;11.03;96.13
2339;BME280;1180;51.438;6.978;2023-03-26T03:11:12;99268.66;;;11.09;95.99
2339;BME280;1180;51.438;6.978;2023-03-26T03:13:38;99261.53;;;11.12;95.53
2339;BME280;1180;51.438;6.978;2023-03-26T03:16:04;99259.31;;;11.08;95.67
2339;BME280;1180;51.438;6.978;2023-03-26T03:18:29;99248.00;;;11.10;95.17
2339;BME280;1180;51.438;6.978;2023-03-26T03:20:54;99247.66;;;11.15;94.74
2339;BME280;1180;51.438;6.978;2023-03-26T03:23:22;99251.97;;;11.15;94.63
2339;BME280;1180;51.438;6.978;2023-03-26T03:25:47;99246.84;;;11.15;95.12
2339;BME280;1180;51.438;6.978;2023-03-26T03:28:14;99247.56;;;11.05;95.18
2339;BME280;1180;51.438;6.978;2023-03-26T03:30:42;99236.47;;;11.05;95.36
2339;BME280;1180;51.438;6.978;2023-03-26T03:33:08;99239.84;;;11.05;95.77
2339;BME280;1180;51.438;6.978;2023-03-26T03:35:33;99239.47;;;11.10;95.52
2339;BME280;1180;51.438;6.978;2023-03-26T03:37:59;99235.63;;;11.16;94.15
2339;BME280;1180;51.438;6.978;2023-03-26T03:40:24;99233.50;;;11.21;94.11
2339;BME280;1180;51.438;6.978;2023-03-26T03:42:50;99231.53;;;11.24;94.06
2339;BME280;1180;51.438;6.978;2023-03-26T03:45:16;99228.63;;;11.18;94.05
2339;BME280;1180;51.438;6.978;2023-03-26T03:47:42;99236.78;;;11.23;94.27
2339;BME280;1180;51.438;6.978;2023-03-26T03:50:08;99228.38;;;11.21;93.79
2339;BME280;1180;51.438;6.978;2023-03-26T03:52:33;99230.69;;;11.24;93.88
2339;BME280;1180;51.438;6.978;2023-03-26T03:54:59;99224.75;;;11.23;93.24
2339;BME280;1180;51.438;6.978;2023-03-26T03:57:25;99219.63;;;11.23;93.95
2339;BME280;1180;51.438;6.978;2023-03-26T03:59:51;99215.28;;;11.24;93.84
2339;BME280;1180;51.438;6.978;2023-03-26T04:02:17;99212.97;;;11.21;93.56
2339;BME280;1180;51.438;6.978;2023-03-26T04:04:53;99213.41;;;11.26;93.78
2339;BME280;1180;51.438;6.978;2023-03-26T04:07:22;99209.56;;;11.32;93.43
2339;BME280;1180;51.438;6.978;2023-03-26T04:09:47;99214.84;;;11.19;93.22
2339;BME280;1180;51.438;6.978;2023-03-26T04:12:12;99206.59;;;11.15;92.81
2339;BME280;1180;51.438;6.978;2023-03-26T04:14:38;99206.69;;;11.13;92.75
2339;BME280;1180;51.438;6.978;2023-03-26T04:17:03;99201.78;;;11.10;92.89
2339;BME280;1180;51.438;6.978;2023-03-26T04:19:29;99192.91;;;11.15;92.60
2339;BME280;1180;51.438;6.978;2023-03-26T04:21:54;99195.13;;;11.08;92.02
2339;BME280;1180;51.438;6.978;2023-03-26T04:24:20;99188.50;;;11.05;92.57
2339;BME280;1180;51.438;6.978;2023-03-26T04:26:47;99183.72;;;11.12;92.03
2339;BME280;1180;51.438;6.978;2023-03-26T04:29:15;99181.38;;;11.09;92.52
2339;BME280;1180;51.438;6.978;2023-03-26T04:31:41;99173.91;;;11.06;92.34
2339;BME280;1180;51.438;6.978;2023-03-26T04:34:12;99167.97;;;11.05;92.88
2339;BME280;1180;51.438;6.978;2023-03-26T04:36:42;99160.97;;;11.07;92.70
2339;BME280;1180;51.438;6.978;2023-03-26T04:39:11;99169.59;;;11.06;92.32
2339;BME280;1180;51.438;6.978;2023-03-26T04:41:37;99165.03;;;11.10;92.08
2339;BME280;1180;51.438;6.978;2023-03-26T04:44:03;99163.19;;;11.12;91.90
2339;BME280;1180;51.438;6.978;2023-03-26T04:46:28;99156.84;;;11.16;91.99
2339;BME280;1180;51.438;6.978;2023-03-26T04:48:58;99151.34;;;11.21;91.30
2339;BME280;1180;51.438;6.978;2023-03-26T04:51:26;99144.72;;;11.18;91.65
2339;BME280;1180;51.438;6.978;2023-03-26T04:53:55;99157.22;;;11.11;91.76
2339;BME280;1180;51.438;6.978;2023-03-26T04:56:38;99149.41;;;11.13;91.82
2339;BME280;1180;51.438;6.978;2023-03-26T04:59:05;99144.97;;;11.15;91.40
2339;BME280;1180;51.438;6.978;2023-03-26T05:01:32;99138.19;;;11.14;91.73
2339;BME280;1180;51.438;6.978;2023-03-26T05:04:02;99125.59;;;11.11;91.23
2339;BME280;1180;51.438;6.978;2023-03-26T05:06:27;99130.59;;;11.12;90.68
2339;BME280;1180;51.438;6.978;2023-03-26T05:08:54;99129.66;;;11.13;91.06
2339;BME280;1180;51.438;6.978;2023-03-26T05:11:19;99127.28;;;11.22;91.15
2339;BME280;1180;51.438;6.978;2023-03-26T05:13:45;99123.78;;;11.23;90.79
2339;BME280;1180;51.438;6.978;2023-03-26T05:16:11;99126.75;;;11.18;91.65
2339;BME280;1180;51.438;6.978;2023-03-26T05:18:37;99118.44;;;11.15;92.62
2339;BME280;1180;51.438;6.978;2023-03-26T05:21:02;99108.63;;;11.20;92.63
2339;BME280;1180;51.438;6.978;2023-03-26T05:23:28;99112.81;;;11.21;92.49
2339;BME280;1180;51.438;6.978;2023-03-26T05:25:54;99106.06;;;11.20;92.89
2339;BME280;1180;51.438;6.978;2023-03-26T05:28:20;99102.78;;;11.18;93.29
2339;BME280;1180;51.438;6.978;2023-03-26T05:30:48;99102.00;;;11.17;94.01
2339;BME280;1180;51.438;6.978;2023-03-26T05:33:14;99096.63;;;11.20;94.14
2339;BME280;1180;51.438;6.978;2023-03-26T05:35:40;99091.59;;;11.19;94.68
2339;BME280;1180;51.438;6.978;2023-03-26T05:38:05;99087.19;;;11.09;95.57
2339;BME280;1180;51.438;6.978;2023-03-26T05:40:31;99079.25;;;11.12;95.42
2339;BME280;1180;51.438;6.978;2023-03-26T05:42:56;99081.38;;;11.07;96.39
2339;BME280;1180;51.438;6.978;2023-03-26T05:45:21;99080.00;;;11.03;96.84
2339;BME280;1180;51.438;6.978;2023-03-26T05:47:47;99074.88;;;11.03;97.23
2339;BME280;1180;51.438;6.978;2023-03-26T05:50:14;99058.78;;;11.01;96.77
2339;BME280;1180;51.438;6.978;2023-03-26T05:52:40;99057.25;;;10.98;97.40
2339;BME280;1180;51.438;6.978;2023-03-26T05:55:06;99057.94;;;11.01;97.36
2339;BME280;1180;51.438;6.978;2023-03-26T05:57:32;99054.44;;;11.02;97.15
2339;BME280;1180;51.438;6.978;2023-03-26T05:59:59;99055.47;;;11.10;97.44
2339;BME280;1180;51.438;6.978;2023-03-26T06:02:25;99056.84;;;11.15;97.13
2339;BME280;1180;51.438;6.978;2023-03-26T06:04:50;99055.78;;;11.17;97.11
2339;BME280;1180;51.438;6.978;2023-03-26T06:07:16;99046.25;;;11.08;97.46
2339;BME280;1180;51.438;6.978;2023-03-26T06:09:42;99045.88;;;11.12;97.88
2339;BME280;1180;51.438;6.978;2023-03-26T06:12:09;99050.44;;;11.09;97.44
2339;BME280;1180;51.438;6.978;2023-03-26T06:14:35;99036.91;;;11.07;97.42
2339;BME280;1180;51.438;6.978;2023-03-26T06:17:01;99033.97;;;11.11;97.33
2339;BME280;1180;51.438;6.978;2023-03-26T06:19:26;99036.28;;;11.15;97.14
2339;BME280;1180;51.438;6.978;2023-03-26T06:21:52;99039.22;;;11.10;97.57
2339;BME280;1180;51.438;6.978;2023-03-26T06:24:17;99038.16;;;11.12;97.40
2339;BME280;1180;51.438;6.978;2023-03-26T06:26:44;99035.69;;;11.22;97.23
2339;BME280;1180;51.438;6.978;2023-03-26T06:29:10;99040.91;;;11.21;97.34
2339;BME280;1180;51.438;6.978;2023-03-26T06:31:35;99032.03;;;11.25;96.83
2339;BME280;1180;51.438;6.978;2023-03-26T06:34:01;99033.78;;;11.24;96.88
2339;BME280;1180;51.438;6.978;2023-03-26T06:36:26;99036.88;;;11.18;97.22
2339;BME280;1180;51.438;6.978;2023-03-26T06:38:52;99032.25;;;11.12;97.47
2339;BME280;1180;51.438;6.978;2023-03-26T06:41:17;99027.78;;;11.14;97.59
2339;BME280;1180;51.438;6.978;2023-03-26T06:43:43;99028.09;;;11.21;97.63
2339;BME280;1180;51.438;6.978;2023-03-26T06:46:08;99034.16;;;11.20;97.36
2339;BME280;1180;51.438;6.978;2023-03-26T06:48:34;99029.97;;;11.19;97.61
2339;BME280;1180;51.438;6.978;2023-03-26T06:50:59;99028.78;;;11.23;97.67
2339;BME280;1180;51.438;6.978;2023-03-26T06:53:25;99028.34;;;11.18;97.64
2339;BME280;1180;51.438;6.978;2023-03-26T06:55:52;99019.44;;;11.22;98.33
2339;BME280;1180;51.438;6.978;2023-03-26T06:58:18;99016.50;;;11.26;98.34
2339;BME280;1180;51.438;6.978;2023-03-26T07:00:43;99014.63;;;11.29;98.17
2339;BME280;1180;51.438;6.978;2023-03-26T07:03:09;99012.31;;;11.25;98.11
2339;BME280;1180;51.438;6.978;2023-03-26T07:05:36;99010.09;;;11.21;98.61
2339;BME280;1180;51.438;6.978;2023-03-26T07:08:01;99005.91;;;11.20;99.00
2339;BME280;1180;51.438;6.978;2023-03-26T07:10:27;98999.72;;;11.22;99.23
2339;BME280;1180;51.438;6.978;2023-03-26T07:12:52;99004.03;;;11.22;99.09
2339;BME280;1180;51.438;6.978;2023-03-26T07:15:18;98986.75;;;11.24;99.13
2339;BME280;1180;51.438;6.978;2023-03-26T07:17:43;98992.13;;;11.21;99.28
2339;BME280;1180;51.438;6.978;2023-03-26T07:20:09;98993.06;;;11.20;99.32
2339;BME280;1180;51.438;6.978;2023-03-26T07:22:35;98984.31;;;11.22;99.68
2339;BME280;1180;51.438;6.978;2023-03-26T07:25:00;98985.53;;;11.18;99.78
2339;BME280;1180;51.438;6.978;2023-03-26T07:27:36;98981.63;;;11.24;99.87
2339;BME280;1180;51.438;6.978;2023-03-26T07:30:11;98978.56;;;11.30;100.00
2339;BME280;1180;51.438;6.978;2023-03-26T07:32:55;98975.94;;;11.20;99.99
2339;BME280;1180;51.438;6.978;2023-03-26T07:35:26;98978.56;;;11.30;100.00
2339;BME280;1180;51.438;6.978;2023-03-26T07:46:35;98964.63;;;11.33;100.00
2339;BME280;1180;51.438;6.978;2023-03-26T07:49:02;98962.75;;;11.35;100.00
2339;BME280;1180;51.438;6.978;2023-03-26T07:51:29;98957.88;;;11.32;100.00
2339;BME280;1180;51.438;6.978;2023-03-26T07:53:56;98955.31;;;11.32;99.85
2339;BME280;1180;51.438;6.978;2023-03-26T07:56:47;98947.19;;;11.26;100.00
2339;BME280;1180;51.438;6.978;2023-03-26T08:10:39;98936.69;;;11.39;100.00
2339;BME280;1180;51.438;6.978;2023-03-26T08:21:16;98933.59;;;11.46;100.00
2339;BME280;1180;51.438;6.978;2023-03-26T08:29:09;98926.19;;;11.52;100.00
2339;BME280;1180;51.438;6.978;2023-03-26T08:31:43;98931.44;;;11.51;100.00
2339;BME280;1180;51.438;6.978;2023-03-26T08:34:11;98926.34;;;11.61;100.00
2339;BME280;1180;51.438;6.978;2023-03-26T08:36:37;98930.03;;;11.68;100.00
2339;BME280;1180;51.438;6.978;2023-03-26T08:39:04;98931.69;;;11.79;100.00
2339;BME280;1180;51.438;6.978;2023-03-26T08:50:12;98929.63;;;11.73;100.00
2339;BME280;1180;51.438;6.978;2023-03-26T09:12:35;98923.06;;;11.99;100.00
2339;BME280;1180;51.438;6.978;2023-03-26T09:23:32;98916.06;;;12.02;100.00
2339;BME280;1180;51.438;6.978;2023-03-26T09:26:03;98912.38;;;11.94;100.00
2339;BME280;1180;51.438;6.978;2023-03-26T09:34:26;98913.91;;;12.07;100.00
2339;BME280;1180;51.438;6.978;2023-03-26T09:39:58;98912.91;;;11.98;100.00
2339;BME280;1180;51.438;6.978;2023-03-26T09:42:33;98908.97;;;11.94;99.82
2339;BME280;1180;51.438;6.978;2023-03-26T09:48:11;98912.22;;;11.96;100.00
2339;BME280;1180;51.438;6.978;2023-03-26T09:50:54;98906.72;;;12.01;100.00
2339;BME280;1180;51.438;6.978;2023-03-26T09:53:46;98907.81;;;12.08;100.00
2339;BME280;1180;51.438;6.978;2023-03-26T09:56:26;98904.25;;;11.99;99.00
2339;BME280;1180;51.438;6.978;2023-03-26T10:01:48;98905.19;;;11.98;98.49
2339;BME280;1180;51.438;6.978;2023-03-26T10:07:40;98900.72;;;11.90;96.44
2339;BME280;1180;51.438;6.978;2023-03-26T10:22:04;98893.34;;;12.07;97.90
2339;BME280;1180;51.438;6.978;2023-03-26T10:27:22;98888.53;;;11.92;98.04
2339;BME280;1180;51.438;6.978;2023-03-26T10:41:09;98885.81;;;11.74;96.03
2339;BME280;1180;51.438;6.978;2023-03-26T10:44:03;98890.81;;;11.76;95.10
2339;BME280;1180;51.438;6.978;2023-03-26T10:49:28;98889.59;;;11.70;94.36
2339;BME280;1180;51.438;6.978;2023-03-26T10:52:03;98892.31;;;11.68;93.68
2339;BME280;1180;51.438;6.978;2023-03-26T10:57:11;98879.31;;;11.70;93.54
2339;BME280;1180;51.438;6.978;2023-03-26T10:59:43;98885.28;;;11.70;93.99
2339;BME280;1180;51.438;6.978;2023-03-26T11:02:25;98879.56;;;11.67;94.45
2339;BME280;1180;51.438;6.978;2023-03-26T11:10:19;98880.09;;;11.61;94.28
2339;BME280;1180;51.438;6.978;2023-03-26T11:13:41;98880.00;;;11.62;95.16
2339;BME280;1180;51.438;6.978;2023-03-26T11:32:10;98876.56;;;11.52;94.35
2339;BME280;1180;51.438;6.978;2023-03-26T11:34:54;98871.38;;;11.42;95.08
2339;BME280;1180;51.438;6.978;2023-03-26T11:37:33;98873.31;;;11.50;96.07
2339;BME280;1180;51.438;6.978;2023-03-26T11:40:01;98867.53;;;11.58;94.45
2339;BME280;1180;51.438;6.978;2023-03-26T11:42:31;98869.28;;;11.67;93.33
2339;BME280;1180;51.438;6.978;2023-03-26T11:45:02;98864.72;;;11.70;93.61
2339;BME280;1180;51.438;6.978;2023-03-26T11:48:05;98863.88;;;11.70;94.06
2339;BME280;1180;51.438;6.978;2023-03-26T11:50:37;98866.75;;;11.77;94.58
2339;BME280;1180;51.438;6.978;2023-03-26T11:53:17;98863.66;;;11.83;94.28
2339;BME280;1180;51.438;6.978;2023-03-26T11:56:02;98862.97;;;11.91;94.24
2339;BME280;1180;51.438;6.978;2023-03-26T12:01:58;98860.84;;;12.06;90.01
2339;BME280;1180;51.438;6.978;2023-03-26T12:04:45;98862.31;;;11.98;88.44
2339;BME280;1180;51.438;6.978;2023-03-26T12:07:29;98856.94;;;12.11;89.31
2339;BME280;1180;51.438;6.978;2023-03-26T12:09:59;98861.53;;;12.18;90.08
2339;BME280;1180;51.438;6.978;2023-03-26T12:12:29;98856.66;;;12.24;90.47
2339;BME280;1180;51.438;6.978;2023-03-26T12:14:56;98855.44;;;12.19;92.10
2339;BME280;1180;51.438;6.978;2023-03-26T12:17:34;98851.22;;;12.37;92.49
2339;BME280;1180;51.438;6.978;2023-03-26T12:20:00;98853.78;;;12.37;92.06
2339;BME280;1180;51.438;6.978;2023-03-26T12:22:33;98847.19;;;12.35;90.86
2339;BME280;1180;51.438;6.978;2023-03-26T12:25:20;98850.84;;;12.22;89.85
2339;BME280;1180;51.438;6.978;2023-03-26T12:27:47;98851.38;;;12.26;87.90
2339;BME280;1180;51.438;6.978;2023-03-26T12:30:22;98857.47;;;12.35;89.18
2339;BME280;1180;51.438;6.978;2023-03-26T12:32:50;98853.81;;;12.18;89.94
2339;BME280;1180;51.438;6.978;2023-03-26T12:35:22;98852.44;;;12.33;89.76
2339;BME280;1180;51.438;6.978;2023-03-26T12:37:51;98851.91;;;12.39;90.84
2339;BME280;1180;51.438;6.978;2023-03-26T12:40:33;98853.22;;;12.53;90.50
2339;BME280;1180;51.438;6.978;2023-03-26T12:43:03;98851.88;;;12.69;89.73
2339;BME280;1180;51.438;6.978;2023-03-26T12:45:40;98849.66;;;12.84;88.23
2339;BME280;1180;51.438;6.978;2023-03-26T12:48:11;98848.25;;;12.90;88.01
2339;BME280;1180;51.438;6.978;2023-03-26T12:54:07;98850.66;;;12.53;87.30
2339;BME280;1180;51.438;6.978;2023-03-26T12:59:43;98848.34;;;12.70;88.04
2339;BME280;1180;51.438;6.978;2023-03-26T13:02:47;98844.50;;;12.84;87.30
2339;BME280;1180;51.438;6.978;2023-03-26T13:13:51;98845.56;;;12.44;89.13
2339;BME280;1180;51.438;6.978;2023-03-26T13:18:55;98852.25;;;12.74;87.59
2339;BME280;1180;51.438;6.978;2023-03-26T13:21:51;98852.28;;;12.64;81.54
2339;BME280;1180;51.438;6.978;2023-03-26T13:36:02;98859.09;;;12.36;85.10
2339;BME280;1180;51.438;6.978;2023-03-26T13:38:40;98852.94;;;12.56;84.18
2339;BME280;1180;51.438;6.978;2023-03-26T13:49:29;98860.41;;;11.81;85.10
2339;BME280;1180;51.438;6.978;2023-03-26T13:52:11;98866.31;;;11.21;83.82
2339;BME280;1180;51.438;6.978;2023-03-26T13:54:47;98867.28;;;10.67;86.54
2339;BME280;1180;51.438;6.978;2023-03-26T13:57:19;98866.09;;;10.50;89.93
2339;BME280;1180;51.438;6.978;2023-03-26T14:00:03;98869.78;;;10.79;90.92
2339;BME280;1180;51.438;6.978;2023-03-26T14:05:16;98872.88;;;11.04;91.17
2339;BME280;1180;51.438;6.978;2023-03-26T14:08:02;98870.50;;;10.91;89.73
2339;BME280;1180;51.438;6.978;2023-03-26T14:10:31;98865.81;;;11.27;90.88
2339;BME280;1180;51.438;6.978;2023-03-26T14:13:05;98870.28;;;10.94;88.58
2339;BME280;1180;51.438;6.978;2023-03-26T14:15:46;98876.78;;;10.55;88.32
2339;BME280;1180;51.438;6.978;2023-03-26T14:18:36;98877.19;;;10.39;91.16
2339;BME280;1180;51.438;6.978;2023-03-26T14:27:29;98885.66;;;11.25;90.43
2339;BME280;1180;51.438;6.978;2023-03-26T14:41:46;98896.44;;;10.66;93.08
2339;BME280;1180;51.438;6.978;2023-03-26T14:44:38;98901.63;;;10.55;93.86
2339;BME280;1180;51.438;6.978;2023-03-26T14:47:18;98903.38;;;10.76;93.76
2339;BME280;1180;51.438;6.978;2023-03-26T14:52:50;98909.59;;;10.73;95.69
2339;BME280;1180;51.438;6.978;2023-03-26T14:55:29;98914.59;;;10.75;97.12
2339;BME280;1180;51.438;6.978;2023-03-26T15:01:16;98926.59;;;10.53;100.00
2339;BME280;1180;51.438;6.978;2023-03-26T15:26:17;98950.69;;;10.62;100.00
2339;BME280;1180;51.438;6.978;2023-03-26T15:38:03;98961.22;;;9.92;100.00
2339;BME280;1180;51.438;6.978;2023-03-26T15:43:07;98968.22;;;9.90;100.00
2339;BME280;1180;51.438;6.978;2023-03-26T15:53:49;98985.94;;;9.81;100.00
2339;BME280;1180;51.438;6.978;2023-03-26T16:04:34;99006.53;;;9.46;100.00
2339;BME280;1180;51.438;6.978;2023-03-26T16:15:23;99023.28;;;9.50;100.00
2339;BME280;1180;51.438;6.978;2023-03-26T16:20:52;99032.72;;;9.72;100.00
2339;BME280;1180;51.438;6.978;2023-03-26T16:23:34;99034.84;;;9.78;100.00
2339;BME280;1180;51.438;6.978;2023-03-26T16:26:22;99051.53;;;9.37;100.00
2339;BME280;1180;51.438;6.978;2023-03-26T16:31:22;99064.38;;;9.01;100.00
2339;BME280;1180;51.438;6.978;2023-03-26T16:36:37;99072.84;;;8.40;100.00
2339;BME280;1180;51.438;6.978;2023-03-26T16:47:06;99099.84;;;9.06;100.00
2339;BME280;1180;51.438;6.978;2023-03-26T16:49:48;99093.72;;;9.20;100.00
2339;BME280;1180;51.438;6.978;2023-03-26T16:54:50;99102.63;;;9.03;100.00
2339;BME280;1180;51.438;6.978;2023-03-26T16:57:36;99111.50;;;8.86;100.00
2339;BME280;1180;51.438;6.978;2023-03-26T17:03:00;99122.66;;;8.85;100.00
2339;BME280;1180;51.438;6.978;2023-03-26T17:11:56;99141.63;;;9.06;100.00
2339;BME280;1180;51.438;6.978;2023-03-26T17:14:35;99151.13;;;8.80;100.00
2339;BME280;1180;51.438;6.978;2023-03-26T17:17:33;99148.13;;;8.86;100.00
2339;BME280;1180;51.438;6.978;2023-03-26T17:20:10;99162.81;;;8.71;100.00
2339;BME280;1180;51.438;6.978;2023-03-26T17:22:44;99169.78;;;8.56;100.00
2339;BME280;1180;51.438;6.978;2023-03-26T17:33:32;99193.34;;;9.23;100.00
2339;BME280;1180;51.438;6.978;2023-03-26T17:41:01;99208.59;;;9.24;100.00
2339;BME280;1180;51.438;6.978;2023-03-26T17:43:34;99216.72;;;9.18;100.00
2339;BME280;1180;51.438;6.978;2023-03-26T17:46:17;99219.38;;;9.17;100.00
2339;BME280;1180;51.438;6.978;2023-03-26T17:54:31;99235.91;;;9.00;100.00
2339;BME280;1180;51.438;6.978;2023-03-26T17:57:03;99241.47;;;8.80;100.00
2339;BME280;1180;51.438;6.978;2023-03-26T17:59:31;99247.88;;;8.99;99.24
2339;BME280;1180;51.438;6.978;2023-03-26T18:02:03;99255.09;;;8.81;96.12
2339;BME280;1180;51.438;6.978;2023-03-26T18:04:38;99256.59;;;8.71;96.19
2339;BME280;1180;51.438;6.978;2023-03-26T18:15:33;99280.75;;;8.66;95.28
2339;BME280;1180;51.438;6.978;2023-03-26T18:18:16;99288.84;;;8.73;97.95
2339;BME280;1180;51.438;6.978;2023-03-26T18:20:45;99298.44;;;8.95;95.71
2339;BME280;1180;51.438;6.978;2023-03-26T18:23:29;99303.78;;;8.92;94.74
2339;BME280;1180;51.438;6.978;2023-03-26T18:26:15;99305.16;;;8.32;92.02
2339;BME280;1180;51.438;6.978;2023-03-26T18:28:50;99311.94;;;8.59;94.79
2339;BME280;1180;51.438;6.978;2023-03-26T18:31:24;99318.50;;;8.50;91.59
2339;BME280;1180;51.438;6.978;2023-03-26T18:33:55;99321.47;;;8.57;89.84
2339;BME280;1180;51.438;6.978;2023-03-26T18:36:25;99328.38;;;8.42;90.94
2339;BME280;1180;51.438;6.978;2023-03-26T18:38:57;99333.84;;;8.50;91.15
2339;BME280;1180;51.438;6.978;2023-03-26T18:41:27;99337.94;;;8.78;90.39
2339;BME280;1180;51.438;6.978;2023-03-26T18:43:59;99342.25;;;8.91;90.00
2339;BME280;1180;51.438;6.978;2023-03-26T18:46:25;99350.53;;;8.94;90.46
2339;BME280;1180;51.438;6.978;2023-03-26T18:48:51;99354.94;;;8.79;88.27
2339;BME280;1180;51.438;6.978;2023-03-26T18:51:18;99360.16;;;8.65;87.06
2339;BME280;1180;51.438;6.978;2023-03-26T18:53:53;99363.50;;;8.52;85.99
2339;BME280;1180;51.438;6.978;2023-03-26T18:56:37;99373.09;;;8.49;85.49
2339;BME280;1180;51.438;6.978;2023-03-26T18:59:10;99377.00;;;8.27;84.87
2339;BME280;1180;51.438;6.978;2023-03-26T19:01:44;99384.06;;;8.23;85.48
2339;BME280;1180;51.438;6.978;2023-03-26T19:04:11;99391.72;;;8.23;85.90
2339;BME280;1180;51.438;6.978;2023-03-26T19:06:38;99394.28;;;8.23;84.62
2339;BME280;1180;51.438;6.978;2023-03-26T19:09:07;99393.69;;;8.05;84.37
2339;BME280;1180;51.438;6.978;2023-03-26T19:11:38;99396.91;;;7.94;83.30
2339;BME280;1180;51.438;6.978;2023-03-26T19:14:16;99405.13;;;8.00;85.51
2339;BME280;1180;51.438;6.978;2023-03-26T19:16:46;99406.66;;;8.02;83.90
2339;BME280;1180;51.438;6.978;2023-03-26T19:19:19;99401.63;;;8.15;83.48
2339;BME280;1180;51.438;6.978;2023-03-26T19:21:47;99416.88;;;8.17;82.96
2339;BME280;1180;51.438;6.978;2023-03-26T19:24:13;99415.56;;;8.24;83.72
2339;BME280;1180;51.438;6.978;2023-03-26T19:26:40;99421.00;;;8.32;82.22